Time;durP1;ratioP1;P1;durP2;ratioP2;P2;SDS_P1;SDS_P2;PMS_P1;PMS_P2;Temp;Humidity;BMP_temperature;BMP_pressure;BME280_temperature;BME280_humidity;BME280_pressure;Samples;Min_cycle;Max_cycle;Signal;HPM_P1;HPM_P2
2022/09/15 00:00:09;;;;;;;2.27;1.77;;;;;;;21.41;61.33;98590.19;4987380;28;20271;-74
2022/09/15 00:02:35;;;;;;;1.53;1.43;;;;;;;21.36;61.77;98595.25;4985723;28;20941;-74
2022/09/15 00:05:00;;;;;;;1.90;0.90;;;;;;;21.29;62.27;98594.34;4980368;28;20462;-74
2022/09/15 00:07:26;;;;;;;1.77;1.17;;;;;;;21.21;62.98;98595.31;4982083;28;20211;-74
2022/09/15 00:09:51;;;;;;;1.57;1.10;;;;;;;21.14;63.66;98585.56;4984201;28;20224;-74
2022/09/15 00:12:17;;;;;;;1.33;1.23;;;;;;;21.05;64.15;98584.06;4982091;28;20200;-74
2022/09/15 00:14:42;;;;;;;1.60;1.20;;;;;;;20.95;64.64;98585.19;4984199;28;20247;-73
2022/09/15 00:17:08;;;;;;;1.20;1.00;;;;;;;20.90;65.04;98578.75;4983325;28;20257;-73
2022/09/15 00:19:33;;;;;;;1.70;1.27;;;;;;;20.82;65.47;98581.53;4986861;28;20199;-73
2022/09/15 00:21:59;;;;;;;2.10;1.30;;;;;;;20.77;65.49;98584.78;4983855;28;20247;-74
2022/09/15 00:24:24;;;;;;;2.40;1.70;;;;;;;20.73;65.71;98576.31;4987934;28;20205;-74
2022/09/15 00:26:49;;;;;;;1.30;0.90;;;;;;;20.71;65.94;98581.03;4983695;28;20926;-74
2022/09/15 00:29:15;;;;;;;1.60;1.50;;;;;;;20.69;65.89;98577.72;4984018;28;20294;-74
2022/09/15 00:31:40;;;;;;;1.60;1.13;;;;;;;20.69;65.87;98584.91;4984125;28;20206;-74
2022/09/15 00:34:06;;;;;;;2.73;1.00;;;;;;;20.68;65.98;98580.56;4985769;28;20565;-74
2022/09/15 00:36:32;;;;;;;1.27;1.17;;;;;;;20.66;66.08;98580.75;4984586;28;20191;-74
2022/09/15 00:38:58;;;;;;;3.40;1.47;;;;;;;20.66;65.97;98582.59;4980059;28;20184;-74
2022/09/15 00:41:24;;;;;;;2.23;1.20;;;;;;;20.64;65.97;98576.63;4979571;28;20407;-74
2022/09/15 00:43:52;;;;;;;1.80;1.20;;;;;;;20.63;66.00;98570.47;4986729;28;21238;-74
2022/09/15 00:46:23;;;;;;;6.30;1.20;;;;;;;20.62;66.09;98571.47;4983391;28;21267;-74
2022/09/15 00:49:04;;;;;;;3.50;1.20;;;;;;;20.61;66.05;98564.50;4980656;28;20448;-74
2022/09/15 00:52:05;;;;;;;1.40;1.30;;;;;;;20.60;66.08;98556.66;4977889;28;20985;-74
2022/09/15 00:54:43;;;;;;;2.33;1.10;;;;;;;20.59;66.07;98560.34;4980061;28;20811;-75
2022/09/15 00:57:17;;;;;;;1.40;1.10;;;;;;;20.58;65.99;98554.19;4979601;28;20445;-74
2022/09/15 00:59:43;;;;;;;1.57;0.97;;;;;;;20.57;66.01;98554.38;4981544;28;20434;-74
2022/09/15 01:02:19;;;;;;;1.27;1.10;;;;;;;20.54;66.19;98553.72;4979213;28;20962;-75
2022/09/15 01:04:46;;;;;;;1.50;1.20;;;;;;;20.53;66.35;98548.56;4978032;28;20495;-74
2022/09/15 01:07:17;;;;;;;1.90;1.20;;;;;;;20.53;66.22;98552.06;4978938;28;20952;-74
2022/09/15 01:10:06;;;;;;;1.50;1.40;;;;;;;20.50;66.37;98551.59;4978172;28;20454;-74
2022/09/15 01:12:32;;;;;;;1.90;1.17;;;;;;;20.50;66.20;98547.09;4980442;28;20520;-74
2022/09/15 01:15:00;;;;;;;1.40;1.20;;;;;;;20.49;66.11;98556.09;4978353;28;20463;-74
2022/09/15 01:17:33;;;;;;;7.03;1.43;;;;;;;20.49;66.12;98556.09;4979390;28;20289;-74
2022/09/15 01:20:10;;;;;;;2.47;1.03;;;;;;;20.50;66.12;98551.59;4983105;28;20420;-74
2022/09/15 01:23:04;;;;;;;1.23;1.00;;;;;;;20.52;65.98;98560.22;4978782;28;20411;-74
2022/09/15 01:26:00;;;;;;;2.90;1.40;;;;;;;20.52;65.75;98547.75;4982213;28;20467;-74
2022/09/15 01:28:57;;;;;;;2.10;1.00;;;;;;;20.51;66.00;98542.56;4981128;28;20446;-75
2022/09/15 01:31:32;;;;;;;2.50;2.03;;;;;;;20.47;65.88;98546.66;4972620;28;20447;-75
2022/09/15 01:34:11;;;;;;;1.60;1.13;;;;;;;20.46;65.89;98545.78;4982770;28;20875;-74
2022/09/15 01:36:37;;;;;;;1.10;1.00;;;;;;;20.45;65.91;98538.00;4985384;28;20432;-74
2022/09/15 01:39:21;;;;;;;2.10;1.17;;;;;;;20.43;65.98;98540.03;4985784;28;20475;-74
2022/09/15 01:42:00;;;;;;;3.60;1.40;;;;;;;20.41;65.78;98531.38;4982532;28;20201;-74
2022/09/15 01:44:48;;;;;;;1.50;1.13;;;;;;;20.41;65.68;98537.53;4983432;28;20509;-74
2022/09/15 01:47:17;;;;;;;2.27;1.90;;;;;;;20.42;65.49;98533.88;4982415;28;20415;-74
2022/09/15 01:49:51;;;;;;;1.57;1.20;;;;;;;20.46;65.54;98540.47;4983314;28;20545;-74
2022/09/15 01:52:19;;;;;;;1.67;1.10;;;;;;;20.47;65.36;98546.66;4981906;28;20450;-74
2022/09/15 01:54:50;;;;;;;2.70;1.00;;;;;;;20.46;65.24;98543.13;4983309;28;20463;-74
2022/09/15 01:57:20;;;;;;;2.10;1.10;;;;;;;20.49;65.07;98542.75;4982182;28;20416;-75
2022/09/15 01:59:49;;;;;;;2.80;1.33;;;;;;;20.50;64.83;98546.28;4818972;23;5004016;-81
2022/09/15 02:02:38;;;;;;;1.63;1.00;;;;;;;20.49;64.76;98545.41;4944082;28;21174;-80
2022/09/15 02:05:13;;;;;;;1.50;1.00;;;;;;;20.49;64.45;98550.75;4953220;28;20456;-81
2022/09/15 02:07:50;;;;;;;1.27;1.00;;;;;;;20.46;64.32;98545.78;4957867;28;20457;-81
2022/09/15 02:10:26;;;;;;;1.83;1.00;;;;;;;20.44;64.01;98537.19;4957750;28;20496;-81
2022/09/15 02:13:13;;;;;;;1.73;1.00;;;;;;;20.46;63.76;98534.31;4960626;28;20732;-81
2022/09/15 02:15:47;;;;;;;1.97;1.00;;;;;;;20.44;63.42;98534.50;4958349;28;21297;-80
2022/09/15 02:18:21;;;;;;;1.53;0.90;;;;;;;20.45;63.31;98532.66;4962624;28;21185;-80
2022/09/15 02:20:59;;;;;;;2.77;0.97;;;;;;;20.47;63.11;98546.66;4962597;28;20455;-81
2022/09/15 02:23:30;;;;;;;1.53;0.93;;;;;;;20.50;62.98;98548.94;4968892;28;20451;-81
2022/09/15 02:26:03;;;;;;;1.47;1.00;;;;;;;20.51;62.89;98539.91;4967543;28;21274;-82
2022/09/15 02:28:32;;;;;;;1.43;0.90;;;;;;;20.52;62.95;98525.53;4963024;28;20524;-80
2022/09/15 02:30:59;;;;;;;1.97;1.07;;;;;;;20.53;62.64;98530.72;4962573;28;20533;-81
2022/09/15 02:33:30;;;;;;;4.10;1.17;;;;;;;20.54;62.69;98532.38;4964913;28;20507;-81
2022/09/15 02:35:56;;;;;;;2.27;0.87;;;;;;;20.57;62.54;98546.38;4963434;28;20430;-80
2022/09/15 02:38:22;;;;;;;2.57;1.20;;;;;;;20.57;62.48;98535.69;4962513;28;20429;-81
2022/09/15 02:40:48;;;;;;;1.20;0.97;;;;;;;20.58;62.43;98527.50;4962689;28;20600;-82
2022/09/15 02:43:16;;;;;;;2.00;1.07;;;;;;;20.59;62.31;98533.66;4961195;28;20951;-81
2022/09/15 02:45:42;;;;;;;1.10;1.00;;;;;;;20.62;62.28;98530.63;4960684;28;20260;-81
2022/09/15 02:48:10;;;;;;;1.70;0.90;;;;;;;20.60;62.62;98536.13;4964618;28;20429;-81
2022/09/15 02:50:37;;;;;;;4.83;1.37;;;;;;;20.58;62.93;98529.34;4964144;28;20481;-80
2022/09/15 02:53:06;;;;;;;1.47;1.37;;;;;;;20.53;63.30;98541.41;4962522;28;21319;-83
2022/09/15 02:55:32;;;;;;;1.43;1.13;;;;;;;20.48;63.60;98535.78;4962935;28;20418;-81
2022/09/15 02:57:58;;;;;;;2.10;1.00;;;;;;;20.43;63.90;98538.16;4962772;28;20535;-80
2022/09/15 03:00:24;;;;;;;1.00;0.80;;;;;;;20.39;64.18;98536.91;4962978;28;20600;-81
2022/09/15 03:02:53;;;;;;;1.47;0.80;;;;;;;20.36;64.40;98544.44;4962304;28;20544;-80
2022/09/15 03:05:22;;;;;;;1.33;1.00;;;;;;;20.32;64.28;98550.16;4963109;28;20452;-80
2022/09/15 03:07:47;;;;;;;2.87;0.93;;;;;;;20.32;63.99;98558.16;4962956;28;20492;-82
2022/09/15 03:10:14;;;;;;;0.90;0.83;;;;;;;20.31;64.30;98553.00;4957498;28;20527;-80
2022/09/15 03:12:45;;;;;;;1.00;0.80;;;;;;;20.34;64.07;98555.31;4953763;28;20646;-79
2022/09/15 03:15:14;;;;;;;1.63;0.80;;;;;;;20.35;64.08;98556.94;4954421;28;20801;-82
2022/09/15 03:17:41;;;;;;;1.40;1.00;;;;;;;20.36;64.04;98555.94;4955695;28;21429;-81
2022/09/15 03:20:09;;;;;;;1.30;1.10;;;;;;;20.35;64.20;98559.63;4955421;28;20572;-79
2022/09/15 03:22:34;;;;;;;1.33;1.00;;;;;;;20.32;64.61;98566.16;4955063;28;20929;-83
2022/09/15 03:25:00;;;;;;;4.23;1.40;;;;;;;20.29;65.03;98558.53;4955423;28;20424;-81
2022/09/15 03:27:26;;;;;;;1.17;0.80;;;;;;;20.25;65.14;98551.06;4954461;28;20562;-81
2022/09/15 03:29:51;;;;;;;2.30;1.33;;;;;;;20.19;65.67;98559.81;4956015;28;20476;-82
2022/09/15 03:32:17;;;;;;;1.90;1.20;;;;;;;20.14;65.90;98556.88;4955560;28;20199;-83
2022/09/15 03:34:42;;;;;;;1.03;0.93;;;;;;;20.09;66.42;98560.94;4955623;28;20209;-83
2022/09/15 03:37:08;;;;;;;3.13;1.20;;;;;;;20.06;66.33;98561.31;4957081;28;20274;-79
2022/09/15 03:39:33;;;;;;;1.20;1.00;;;;;;;20.01;66.96;98558.38;4953603;28;20910;-79
2022/09/15 03:41:59;;;;;;;1.77;1.20;;;;;;;19.98;67.11;98556.06;4954540;28;20224;-79
2022/09/15 03:44:25;;;;;;;1.67;0.90;;;;;;;19.96;67.22;98550.09;4955652;28;20232;-79
2022/09/15 03:46:50;;;;;;;1.03;0.80;;;;;;;19.95;67.20;98555.59;4953616;28;20495;-82
2022/09/15 03:49:16;;;;;;;2.03;1.03;;;;;;;19.93;67.55;98553.13;4959276;28;20757;-81
2022/09/15 03:51:42;;;;;;;2.33;1.00;;;;;;;19.90;67.67;98556.13;4961702;28;20198;-80
2022/09/15 03:54:07;;;;;;;2.80;1.60;;;;;;;19.87;68.31;98564.50;4963452;28;20202;-82
2022/09/15 03:56:34;;;;;;;2.57;1.30;;;;;;;19.79;68.63;98554.75;4967564;28;20189;-83
2022/09/15 03:59:01;;;;;;;2.03;1.40;;;;;;;19.75;68.96;98563.31;4965427;28;20496;-81
2022/09/15 04:01:28;;;;;;;1.70;1.10;;;;;;;19.71;69.37;98556.66;4965664;28;20418;-80
2022/09/15 04:03:53;;;;;;;1.20;1.10;;;;;;;19.67;69.65;98550.88;4964535;28;20443;-79
2022/09/15 04:06:20;;;;;;;2.73;1.33;;;;;;;19.64;69.89;98545.91;4978938;28;20512;-81
2022/09/15 04:08:47;;;;;;;1.83;1.40;;;;;;;19.60;69.81;98540.09;4963543;28;20732;-82
2022/09/15 04:11:13;;;;;;;2.00;1.00;;;;;;;19.57;70.15;98545.78;4963510;28;21407;-83
2022/09/15 04:13:40;;;;;;;1.17;0.90;;;;;;;19.55;70.00;98544.28;4963888;28;21262;-80
2022/09/15 04:16:15;;;;;;;2.13;1.10;;;;;;;19.53;70.21;98544.50;4963187;28;20439;-79
2022/09/15 04:18:41;;;;;;;1.90;1.03;;;;;;;19.52;70.14;98547.31;4963214;28;20584;-82
2022/09/15 04:21:10;;;;;;;3.10;1.87;;;;;;;19.51;70.19;98548.34;4963877;28;21466;-79
2022/09/15 04:23:36;;;;;;;1.53;1.13;;;;;;;19.50;70.08;98539.53;4964394;28;20462;-80
2022/09/15 04:26:04;;;;;;;1.23;0.90;;;;;;;19.52;69.97;98547.31;4964714;28;20469;-83
2022/09/15 04:28:33;;;;;;;1.83;1.27;;;;;;;19.51;70.10;98543.03;4965015;28;20232;-79
2022/09/15 04:31:07;;;;;;;1.80;1.27;;;;;;;19.52;69.81;98537.50;4964361;28;20488;-78
2022/09/15 04:33:33;;;;;;;1.20;1.00;;;;;;;19.53;69.63;98541.00;4963814;28;20471;-79
2022/09/15 04:36:05;;;;;;;2.90;1.70;;;;;;;19.53;69.58;98541.84;4964182;28;21544;-83
2022/09/15 04:38:31;;;;;;;2.30;1.50;;;;;;;19.54;69.70;98535.47;4962465;28;20447;-79
2022/09/15 04:40:57;;;;;;;1.77;0.97;;;;;;;19.55;69.61;98528.31;4975288;28;20470;-80
2022/09/15 04:43:26;;;;;;;1.43;1.33;;;;;;;19.54;69.49;98519.50;4963085;28;20188;-80
2022/09/15 04:45:52;;;;;;;1.00;0.90;;;;;;;19.54;69.45;98530.16;4962855;28;20457;-83
2022/09/15 04:48:18;;;;;;;2.23;1.10;;;;;;;19.54;69.54;98518.69;4962388;28;20497;-80
2022/09/15 04:50:43;;;;;;;1.97;1.30;;;;;;;19.55;69.28;98528.31;4961093;28;20460;-79
2022/09/15 04:53:09;;;;;;;3.40;1.13;;;;;;;19.54;69.48;98524.00;4961936;28;20279;-79
2022/09/15 04:55:34;;;;;;;2.80;1.20;;;;;;;19.54;69.23;98519.50;4963119;28;20768;-80
2022/09/15 04:58:01;;;;;;;1.70;1.17;;;;;;;19.54;69.17;98535.47;4962759;28;20189;-80
2022/09/15 05:00:27;;;;;;;1.70;1.10;;;;;;;19.55;68.87;98530.97;4963187;28;20224;-79
2022/09/15 05:02:53;;;;;;;1.67;1.40;;;;;;;19.55;68.97;98539.81;4962637;28;20437;-80
2022/09/15 05:05:19;;;;;;;2.00;1.00;;;;;;;19.57;68.91;98534.31;4962926;28;20449;-81
2022/09/15 05:07:46;;;;;;;1.73;1.10;;;;;;;19.57;68.72;98535.13;4962187;28;20209;-83
2022/09/15 05:10:11;;;;;;;1.80;1.20;;;;;;;19.58;68.39;98536.78;4962624;28;20340;-80
2022/09/15 05:12:37;;;;;;;1.17;0.90;;;;;;;19.61;68.36;98541.75;4961708;28;20574;-78
2022/09/15 05:15:03;;;;;;;1.43;1.03;;;;;;;19.61;68.20;98541.75;4961206;28;20460;-81
2022/09/15 05:17:30;;;;;;;2.27;1.20;;;;;;;19.63;68.18;98541.56;4962708;28;20617;-79
2022/09/15 05:19:57;;;;;;;1.57;1.07;;;;;;;19.61;68.21;98544.41;4961118;28;20589;-80
2022/09/15 05:22:22;;;;;;;2.77;1.07;;;;;;;19.61;68.70;98547.09;4962255;28;20571;-80
2022/09/15 05:24:48;;;;;;;2.00;1.27;;;;;;;19.59;68.69;98550.94;4962591;28;20348;-84
2022/09/15 05:27:13;;;;;;;1.37;1.00;;;;;;;19.56;69.00;98549.47;4961604;28;20273;-83
2022/09/15 05:29:38;;;;;;;3.53;1.90;;;;;;;19.56;69.49;98561.97;4962383;28;21379;-80
2022/09/15 05:32:04;;;;;;;1.50;1.10;;;;;;;19.53;69.68;98563.13;4964679;28;20262;-81
2022/09/15 05:34:29;;;;;;;1.90;1.30;;;;;;;19.50;69.95;98554.69;4964397;28;20208;-80
2022/09/15 05:36:56;;;;;;;2.03;1.20;;;;;;;19.49;70.08;98561.00;4964495;28;20205;-80
2022/09/15 05:39:21;;;;;;;2.53;1.37;;;;;;;19.49;70.34;98571.66;4962917;28;20209;-80
2022/09/15 05:41:46;;;;;;;2.80;1.07;;;;;;;19.46;70.56;98573.66;4963287;28;20417;-81
2022/09/15 05:44:12;;;;;;;1.40;1.30;;;;;;;19.45;70.49;98568.53;4963507;28;20277;-80
2022/09/15 05:46:37;;;;;;;2.30;1.30;;;;;;;19.44;70.65;98577.53;4963963;28;20203;-80
2022/09/15 05:49:03;;;;;;;1.90;1.13;;;;;;;19.42;70.72;98574.22;4962823;28;20577;-83
2022/09/15 05:51:29;;;;;;;2.30;1.33;;;;;;;19.44;70.77;98572.19;4961933;28;20221;-83
2022/09/15 05:53:55;;;;;;;3.57;1.40;;;;;;;19.42;70.78;98571.56;4964873;28;20256;-81
2022/09/15 05:56:21;;;;;;;1.70;0.90;;;;;;;19.39;70.88;98570.09;4980364;28;21270;-80
2022/09/15 05:58:47;;;;;;;1.23;1.13;;;;;;;19.37;71.08;98572.09;4966701;28;20427;-79
2022/09/15 06:01:16;;;;;;;3.33;1.27;;;;;;;19.36;71.17;98574.94;4967445;28;20437;-79
2022/09/15 06:03:42;;;;;;;2.83;1.20;;;;;;;19.37;71.15;98587.25;4967261;28;20429;-79
2022/09/15 06:06:08;;;;;;;1.97;1.40;;;;;;;19.34;71.29;98584.94;4967771;28;20974;-83
2022/09/15 06:08:39;;;;;;;2.10;1.50;;;;;;;19.32;71.78;98589.63;4967405;28;20432;-83
2022/09/15 06:11:13;;;;;;;1.40;1.30;;;;;;;19.31;71.79;98587.94;4966156;28;20427;-79
2022/09/15 06:13:39;;;;;;;2.07;1.40;;;;;;;19.29;71.67;98598.78;4966288;28;20462;-81
2022/09/15 06:16:09;;;;;;;1.77;1.30;;;;;;;19.28;71.63;98598.94;4965540;28;21248;-79
2022/09/15 06:18:37;;;;;;;1.27;1.10;;;;;;;19.29;72.08;98587.31;4965865;28;20193;-79
2022/09/15 06:21:13;;;;;;;2.47;1.57;;;;;;;19.30;71.93;98600.44;4965602;28;21474;-79
2022/09/15 06:23:40;;;;;;;2.27;1.50;;;;;;;19.32;71.80;98600.28;4966233;28;20485;-79
2022/09/15 06:26:14;;;;;;;3.73;1.40;;;;;;;19.34;72.07;98601.75;4966427;28;20433;-80
2022/09/15 06:28:41;;;;;;;1.53;1.30;;;;;;;19.37;72.09;98601.38;4965674;28;20439;-79
2022/09/15 06:31:14;;;;;;;1.90;1.00;;;;;;;19.39;72.10;98601.22;4964315;28;20403;-79
2022/09/15 06:33:45;;;;;;;2.23;1.20;;;;;;;19.41;72.06;98610.66;4963163;28;20614;-81
2022/09/15 06:36:14;;;;;;;1.63;1.50;;;;;;;19.45;71.96;98605.81;4962137;28;20486;-79
2022/09/15 06:38:40;;;;;;;2.00;1.40;;;;;;;19.50;72.05;98611.44;4963484;28;20522;-82
2022/09/15 06:41:07;;;;;;;1.80;1.30;;;;;;;19.55;71.59;98614.41;4962774;28;20837;-81
2022/09/15 06:43:33;;;;;;;2.00;1.30;;;;;;;19.60;71.39;98614.66;4963112;28;20444;-79
2022/09/15 06:46:20;;;;;;;1.73;1.30;;;;;;;19.64;71.56;98620.50;4962998;28;20448;-81
2022/09/15 06:48:46;;;;;;;4.50;4.17;;;;;;;19.67;71.36;98620.16;4964299;28;20439;-79
2022/09/15 06:51:12;;;;;;;1.50;1.40;;;;;;;19.67;71.38;98620.97;4963720;28;20915;-83
2022/09/15 06:53:38;;;;;;;1.40;1.30;;;;;;;19.69;71.75;98618.16;4963297;28;20432;-80
2022/09/15 06:56:06;;;;;;;1.90;1.70;;;;;;;19.72;71.49;98620.44;4964081;28;21355;-79
2022/09/15 06:58:34;;;;;;;1.27;1.10;;;;;;;19.74;71.13;98614.91;4962641;28;20452;-79
2022/09/15 07:01:11;;;;;;;3.43;1.10;;;;;;;19.78;71.31;98621.56;4953743;28;20430;-79
2022/09/15 07:03:38;;;;;;;2.80;1.60;;;;;;;19.84;71.18;98628.81;4962735;28;20492;-79
2022/09/15 07:06:04;;;;;;;1.93;1.10;;;;;;;19.94;70.85;98625.91;4965323;28;20443;-79
2022/09/15 07:08:30;;;;;;;2.00;1.90;;;;;;;20.03;70.59;98622.13;4964819;28;20483;-82
2022/09/15 07:10:55;;;;;;;4.90;1.93;;;;;;;20.12;70.39;98623.72;4964276;28;20590;-83
2022/09/15 07:13:22;;;;;;;1.93;1.30;;;;;;;20.22;70.18;98623.44;4964980;28;20665;-83
2022/09/15 07:15:51;;;;;;;1.73;1.43;;;;;;;20.30;69.77;98626.00;4964963;28;20275;-80
2022/09/15 07:18:16;;;;;;;2.43;1.30;;;;;;;20.37;69.45;98631.44;4962638;28;20444;-82
2022/09/15 07:20:42;;;;;;;1.67;1.50;;;;;;;20.41;69.31;98625.53;4964587;28;20949;-79
2022/09/15 07:23:07;;;;;;;2.40;1.47;;;;;;;20.42;69.13;98621.88;4964774;28;20244;-79
2022/09/15 07:25:33;;;;;;;3.50;1.20;;;;;;;20.46;69.13;98630.34;4964549;28;20184;-80
2022/09/15 07:27:58;;;;;;;1.80;1.30;;;;;;;20.45;69.11;98631.34;4964198;28;20254;-79
2022/09/15 07:30:24;;;;;;;3.83;1.53;;;;;;;20.44;68.92;98635.88;4964072;28;20263;-82
2022/09/15 07:32:49;;;;;;;1.70;1.53;;;;;;;20.47;68.72;98645.34;4964240;28;20602;-82
2022/09/15 07:35:14;;;;;;;1.50;1.33;;;;;;;20.51;68.35;98647.44;4964535;28;20185;-79
2022/09/15 07:37:40;;;;;;;3.43;1.73;;;;;;;20.55;68.65;98651.44;4963969;28;20243;-80
2022/09/15 07:40:06;;;;;;;1.40;1.30;;;;;;;20.61;68.40;98646.38;4963731;28;20205;-79
2022/09/15 07:42:31;;;;;;;2.03;1.40;;;;;;;20.71;67.94;98645.06;4961222;28;20586;-79
2022/09/15 07:44:56;;;;;;;2.10;1.90;;;;;;;20.84;67.66;98643.56;4963809;28;20790;-82
2022/09/15 07:47:22;;;;;;;2.90;1.60;;;;;;;21.00;66.80;98643.34;4963895;28;20194;-80
2022/09/15 07:49:49;;;;;;;3.90;1.90;;;;;;;21.53;65.63;98633.25;4963489;28;20225;-80
2022/09/15 07:52:14;;;;;;;2.23;1.60;;;;;;;22.17;63.40;98634.97;4962314;28;20662;-80
2022/09/15 07:54:40;;;;;;;2.30;1.60;;;;;;;22.80;61.39;98634.09;4962506;28;21024;-82
2022/09/15 07:57:05;;;;;;;3.10;1.60;;;;;;;23.36;59.87;98629.31;4961855;28;20199;-82
2022/09/15 07:59:31;;;;;;;3.73;2.20;;;;;;;23.94;58.25;98625.25;5009623;23;20215;-73
2022/09/15 08:01:56;;;;;;;3.40;2.20;;;;;;;24.16;57.43;98625.81;4953037;28;20189;-74
2022/09/15 08:04:21;;;;;;;2.60;1.77;;;;;;;23.89;57.50;98631.22;4956798;28;20199;-73
2022/09/15 08:06:47;;;;;;;5.30;2.88;;;;;;;23.49;58.55;98639.22;3241097;28;20003436;-73
2022/09/15 08:09:13;;;;;;;3.60;2.60;;;;;;;23.01;59.31;98636.66;4952474;28;20278;-73
2022/09/15 08:11:40;;;;;;;2.53;2.33;;;;;;;22.51;60.65;98649.38;4951699;28;20763;-73
2022/09/15 08:14:06;;;;;;;3.23;2.93;;;;;;;22.15;62.04;98636.19;4951377;28;21035;-73
2022/09/15 08:16:31;;;;;;;4.00;2.23;;;;;;;21.88;63.20;98655.53;4950068;28;20455;-73
2022/09/15 08:18:57;;;;;;;4.00;2.07;;;;;;;21.60;63.91;98639.47;4950470;28;20191;-73
2022/09/15 08:21:22;;;;;;;4.53;2.30;;;;;;;21.37;64.50;98654.84;4950730;28;20875;-73
2022/09/15 08:23:54;;;;;;;2.80;2.50;;;;;;;21.20;65.05;98651.59;4952857;28;20286;-73
2022/09/15 08:26:19;;;;;;;2.60;1.70;;;;;;;21.06;65.74;98663.94;4951640;28;20210;-73
2022/09/15 08:28:45;;;;;;;2.97;1.83;;;;;;;20.97;66.32;98668.56;4953098;28;20426;-73
2022/09/15 08:31:12;;;;;;;2.37;1.47;;;;;;;20.85;66.47;98670.09;4948995;28;20306;-73
2022/09/15 08:33:38;;;;;;;2.60;1.57;;;;;;;20.80;67.06;98671.66;4951318;28;20220;-74
2022/09/15 08:36:06;;;;;;;2.10;1.50;;;;;;;20.75;67.20;98667.69;4950620;28;20398;-73
2022/09/15 08:38:33;;;;;;;2.80;1.53;;;;;;;20.76;67.23;98676.53;4952124;28;20433;-73
2022/09/15 08:41:02;;;;;;;4.70;2.30;;;;;;;20.77;67.28;98670.19;4953441;28;20580;-74
2022/09/15 08:43:35;;;;;;;1.70;1.10;;;;;;;20.84;67.27;98675.59;4952490;28;20447;-74
2022/09/15 08:46:06;;;;;;;1.90;1.37;;;;;;;20.83;67.50;98664.09;4952614;28;20481;-74
2022/09/15 08:48:48;;;;;;;2.90;1.53;;;;;;;20.90;67.38;98672.16;4951890;28;20404;-74
2022/09/15 08:51:32;;;;;;;2.63;1.77;;;;;;;20.97;67.07;98671.25;4952977;28;20429;-74
2022/09/15 08:54:09;;;;;;;1.77;1.20;;;;;;;21.03;66.91;98672.34;4950162;28;20416;-74
2022/09/15 08:56:35;;;;;;;1.70;1.30;;;;;;;21.04;66.92;98667.84;4952743;28;20412;-74
2022/09/15 08:59:01;;;;;;;1.47;1.33;;;;;;;21.05;66.59;98667.63;4951003;28;20437;-74
2022/09/15 09:01:26;;;;;;;1.57;1.40;;;;;;;21.08;66.62;98666.44;4951092;28;20460;-75
2022/09/15 09:04:04;;;;;;;1.93;1.40;;;;;;;21.08;66.43;98672.59;4951890;28;20221;-74
2022/09/15 09:06:36;;;;;;;5.70;1.47;;;;;;;21.12;66.43;98673.91;4949585;28;20197;-74
2022/09/15 09:09:01;;;;;;;3.63;1.83;;;;;;;21.16;66.25;98677.00;4951730;28;20803;-74
2022/09/15 09:11:46;;;;;;;2.27;1.30;;;;;;;21.16;66.03;98669.00;4951094;28;20925;-74
2022/09/15 09:14:38;;;;;;;2.30;1.53;;;;;;;21.15;65.89;98673.50;4953836;28;20382;-74
2022/09/15 09:17:12;;;;;;;2.47;1.23;;;;;;;21.11;66.05;98669.56;4950271;28;20405;-73
2022/09/15 09:19:51;;;;;;;1.70;1.60;;;;;;;21.00;66.41;98678.88;4951559;28;20499;-75
2022/09/15 09:22:24;;;;;;;3.43;1.40;;;;;;;20.94;66.37;98674.28;4952917;28;20470;-74
2022/09/15 09:24:53;;;;;;;1.50;1.40;;;;;;;20.93;66.64;98675.31;4951615;28;20425;-74
2022/09/15 09:27:27;;;;;;;1.43;1.30;;;;;;;20.94;66.79;98676.13;4953082;28;20428;-74
2022/09/15 09:30:14;;;;;;;2.40;2.20;;;;;;;20.94;66.76;98666.28;4956132;28;20540;-74
2022/09/15 09:32:45;;;;;;;2.00;1.90;;;;;;;20.95;66.74;98680.44;4953261;28;20407;-74
2022/09/15 09:35:27;;;;;;;2.17;1.37;;;;;;;20.96;66.67;98672.28;4955461;28;20412;-74
2022/09/15 09:37:53;;;;;;;1.30;1.20;;;;;;;20.94;66.88;98663.63;4954305;28;20400;-73
2022/09/15 09:40:20;;;;;;;3.67;1.37;;;;;;;20.94;66.99;98668.94;4955044;28;20801;-74
2022/09/15 09:42:46;;;;;;;1.90;1.17;;;;;;;21.00;66.82;98662.03;4955054;28;20413;-74
2022/09/15 09:45:17;;;;;;;1.60;1.20;;;;;;;21.12;66.88;98668.56;4954644;28;20413;-74
2022/09/15 09:47:43;;;;;;;1.93;1.30;;;;;;;21.24;66.37;98670.72;4955713;28;20558;-74
2022/09/15 09:50:31;;;;;;;2.43;1.70;;;;;;;21.26;66.54;98666.84;4954200;28;20976;-74
2022/09/15 09:52:57;;;;;;;1.50;1.40;;;;;;;21.29;66.62;98663.78;4953088;28;20487;-75
2022/09/15 09:55:26;;;;;;;2.80;1.67;;;;;;;21.35;67.07;98664.88;4954930;28;20443;-74
2022/09/15 09:57:52;;;;;;;1.93;1.53;;;;;;;21.39;67.17;98659.00;4955659;28;21493;-74
2022/09/15 10:00:31;;;;;;;2.30;1.47;;;;;;;21.46;67.22;98656.38;4954858;28;20503;-74
2022/09/15 10:03:07;;;;;;;1.77;1.50;;;;;;;21.51;67.23;98655.81;4954055;28;20445;-74
2022/09/15 10:05:33;;;;;;;2.07;1.33;;;;;;;21.54;67.53;98658.09;4954706;28;20440;-74
2022/09/15 10:08:01;;;;;;;4.07;1.80;;;;;;;21.56;67.79;98658.75;4954170;28;20813;-74
2022/09/15 10:10:31;;;;;;;1.47;1.37;;;;;;;21.56;67.86;98658.75;4952899;28;20251;-74
2022/09/15 10:12:58;;;;;;;1.90;1.37;;;;;;;21.59;67.92;98648.50;4953255;28;21627;-75
2022/09/15 10:15:30;;;;;;;2.37;1.63;;;;;;;21.61;68.22;98646.47;4954196;28;20437;-75
2022/09/15 10:17:56;;;;;;;3.03;1.57;;;;;;;21.68;68.15;98651.84;4953981;28;20505;-75
2022/09/15 10:20:27;;;;;;;3.20;1.70;;;;;;;21.73;68.15;98645.94;4953658;28;20591;-75
2022/09/15 10:23:01;;;;;;;1.63;1.40;;;;;;;21.83;67.78;98641.09;4953101;28;21445;-75
2022/09/15 10:25:30;;;;;;;2.80;1.60;;;;;;;21.92;67.64;98652.47;4960218;28;20423;-75
2022/09/15 10:28:12;;;;;;;2.43;1.30;;;;;;;22.04;66.92;98650.94;4955077;28;20907;-74
2022/09/15 10:31:01;;;;;;;2.87;2.67;;;;;;;22.12;66.55;98647.28;4955194;28;20438;-75
2022/09/15 10:33:37;;;;;;;1.87;1.50;;;;;;;22.18;66.64;98639.31;4953559;28;20446;-75
2022/09/15 10:36:10;;;;;;;2.20;2.03;;;;;;;22.27;66.57;98632.78;4954632;28;20606;-74
2022/09/15 10:38:43;;;;;;;5.47;1.47;;;;;;;22.37;66.30;98634.28;4952642;28;20918;-75
2022/09/15 10:41:26;;;;;;;4.20;1.47;;;;;;;22.49;65.93;98632.69;4953804;28;20429;-75
2022/09/15 10:44:04;;;;;;;2.10;1.50;;;;;;;22.56;65.20;98638.91;4953426;28;20850;-75
2022/09/15 10:46:47;;;;;;;3.13;1.60;;;;;;;22.66;64.11;98634.03;4954357;28;20480;-74
2022/09/15 10:49:30;;;;;;;1.97;1.23;;;;;;;22.64;63.90;98629.91;4953308;28;20446;-74
2022/09/15 10:51:58;;;;;;;2.03;1.53;;;;;;;22.64;63.70;98630.72;4953476;28;20446;-74
2022/09/15 10:54:53;;;;;;;1.67;1.20;;;;;;;22.63;63.78;98623.72;4953992;28;20910;-74
2022/09/15 10:57:47;;;;;;;2.00;1.90;;;;;;;22.59;63.36;98625.13;4953385;28;20427;-74
2022/09/15 11:00:22;;;;;;;2.17;1.50;;;;;;;22.50;63.15;98621.81;4953112;28;20506;-74
2022/09/15 11:03:09;;;;;;;2.73;1.17;;;;;;;22.43;63.21;98633.50;4953143;28;20444;-75
2022/09/15 11:05:47;;;;;;;3.63;1.40;;;;;;;22.35;63.65;98634.47;4953180;28;20438;-75
2022/09/15 11:08:22;;;;;;;1.83;1.40;;;;;;;22.32;64.25;98642.91;4953109;28;20969;-75
2022/09/15 11:10:56;;;;;;;2.13;1.33;;;;;;;22.32;64.22;98642.91;4952345;28;20485;-75
2022/09/15 11:13:49;;;;;;;2.03;1.40;;;;;;;22.31;64.64;98641.25;4972521;28;20459;-75
2022/09/15 11:16:44;;;;;;;1.90;1.80;;;;;;;22.24;65.12;98640.38;4971416;28;20426;-75
2022/09/15 11:19:31;;;;;;;1.60;1.50;;;;;;;22.21;65.15;98640.78;4969933;28;20982;-75
2022/09/15 11:22:06;;;;;;;4.53;3.33;;;;;;;22.18;65.79;98641.16;4982024;28;20440;-75
2022/09/15 11:24:46;;;;;;;2.43;1.33;;;;;;;22.08;66.32;98638.81;4971426;28;20417;-76
2022/09/15 11:27:22;;;;;;;3.10;2.00;;;;;;;21.97;67.00;98652.72;4970614;28;20889;-76
2022/09/15 11:29:58;;;;;;;1.53;1.40;;;;;;;21.85;67.61;98650.56;4970720;28;20473;-76
2022/09/15 11:32:33;;;;;;;2.00;1.50;;;;;;;21.77;68.36;98661.41;4971333;28;20445;-76
2022/09/15 11:35:04;;;;;;;1.33;1.23;;;;;;;21.67;68.51;98665.44;4972089;28;20404;-76
2022/09/15 11:37:44;;;;;;;2.57;1.90;;;;;;;21.60;68.86;98670.69;4971386;28;20404;-76
2022/09/15 11:40:22;;;;;;;3.53;1.77;;;;;;;21.58;69.11;98681.59;4970020;28;20465;-76
2022/09/15 11:42:51;;;;;;;5.20;1.63;;;;;;;21.58;69.36;98686.13;4970146;28;20469;-76
2022/09/15 11:45:23;;;;;;;2.07;1.50;;;;;;;21.55;69.53;98697.16;4969231;28;20466;-76
2022/09/15 11:48:11;;;;;;;3.17;1.40;;;;;;;21.46;69.78;98707.16;4970334;28;20846;-76